CheckWX is a tool to help pilots better visualize weather data.  It is not intended as a substitute for an official pre-flight weather briefing.

15:23:20 UTC

KIAD METAR
Washington Dulles International Airport
Washington, Virginia, USA
Current

31 mins ago

KIAD 231452Z 20009KT 10SM CLR 23/16 A3013 RMK AO2 SLP201 T02330161 58011
Observed
May-23 @ 14:52 UTC
Wind
  • 200° at 9 KTS
Visibility
10 SM
Flight Rules
VFR
Cloud Levels
  • Clear skies
Temperature
23°C / 73°F
Dewpoint
16°C / 61°F
Humidity
65%
Altimeter
30.13" Hg
Pressure
1020.32 hPa
Previous

2 hours ago

KIAD 231352Z 20008KT 10SM BKN095 BKN120 BKN250 21/14 A3015 RMK AO2 SLP206 T02110144
Observed
May-23 @ 13:52 UTC
Wind
  • 200° at 8 KTS
Visibility
10 SM
Flight Rules
VFR
Cloud Levels
  • Broken at 9,500' AGL
  • Broken at 12,000' AGL
  • Broken at 25,000' AGL
Temperature
21°C / 70°F
Dewpoint
14°C / 57°F
Humidity
64%
Altimeter
30.15" Hg
Pressure
1021.02 hPa
Previous

3 hours ago

KIAD 231252Z 20009KT 10SM FEW100 SCT150 BKN250 19/13 A3016 RMK AO2 SLP211 T01890128
Observed
May-23 @ 12:52 UTC
Wind
  • 200° at 9 KTS
Visibility
10 SM
Flight Rules
VFR
Cloud Levels
  • Few at 10,000' AGL
  • Scattered at 15,000' AGL
  • Broken at 25,000' AGL
Temperature
19°C / 66°F
Dewpoint
13°C / 55°F
Humidity
68%
Altimeter
30.16" Hg
Pressure
1021.32 hPa